sensor_id;sensor_type;location;lat;lon;timestamp;temperature;humidity
68943;DHT22;60852;52.190;4.422;2022-07-29T00:02:11;17.96;64.75
68943;DHT22;60852;52.190;4.422;2022-07-29T00:04:37;17.96;64.82
68943;DHT22;60852;52.190;4.422;2022-07-29T00:07:03;17.93;64.82
68943;DHT22;60852;52.190;4.422;2022-07-29T00:09:30;17.90;65.04
68943;DHT22;60852;52.190;4.422;2022-07-29T00:11:59;17.93;65.04
68943;DHT22;60852;52.190;4.422;2022-07-29T00:14:25;17.92;65.16
68943;DHT22;60852;52.190;4.422;2022-07-29T00:16:50;17.94;64.82
68943;DHT22;60852;52.190;4.422;2022-07-29T00:19:16;17.80;65.07
68943;DHT22;60852;52.190;4.422;2022-07-29T00:21:41;17.82;65.10
68943;DHT22;60852;52.190;4.422;2022-07-29T00:24:07;17.80;65.17
68943;DHT22;60852;52.190;4.422;2022-07-29T00:26:32;17.80;65.14
68943;DHT22;60852;52.190;4.422;2022-07-29T00:28:59;17.78;65.19
68943;DHT22;60852;52.190;4.422;2022-07-29T00:31:24;17.76;65.14
68943;DHT22;60852;52.190;4.422;2022-07-29T00:33:50;17.78;65.15
68943;DHT22;60852;52.190;4.422;2022-07-29T00:36:15;17.80;64.99
68943;DHT22;60852;52.190;4.422;2022-07-29T00:38:41;17.78;65.14
68943;DHT22;60852;52.190;4.422;2022-07-29T00:41:11;17.75;65.37
68943;DHT22;60852;52.190;4.422;2022-07-29T00:43:37;17.68;65.55
68943;DHT22;60852;52.190;4.422;2022-07-29T00:46:02;17.71;65.70
68943;DHT22;60852;52.190;4.422;2022-07-29T00:48:28;17.65;65.84
68943;DHT22;60852;52.190;4.422;2022-07-29T00:50:55;17.61;66.01
68943;DHT22;60852;52.190;4.422;2022-07-29T00:53:23;17.61;66.12
68943;DHT22;60852;52.190;4.422;2022-07-29T00:55:50;17.62;66.07
68943;DHT22;60852;52.190;4.422;2022-07-29T00:58:15;17.59;66.14
68943;DHT22;60852;52.190;4.422;2022-07-29T01:00:41;17.59;66.14
68943;DHT22;60852;52.190;4.422;2022-07-29T01:03:07;17.62;66.04
68943;DHT22;60852;52.190;4.422;2022-07-29T01:05:34;17.56;66.26
68943;DHT22;60852;52.190;4.422;2022-07-29T01:08:01;17.49;66.57
68943;DHT22;60852;52.190;4.422;2022-07-29T01:10:27;17.55;66.55
68943;DHT22;60852;52.190;4.422;2022-07-29T01:12:57;17.51;66.74
68943;DHT22;60852;52.190;4.422;2022-07-29T01:15:24;17.46;66.72
68943;DHT22;60852;52.190;4.422;2022-07-29T01:18:03;17.52;66.66
68943;DHT22;60852;52.190;4.422;2022-07-29T01:20:55;17.46;66.74
68943;DHT22;60852;52.190;4.422;2022-07-29T01:26:37;17.45;67.07
68943;DHT22;60852;52.190;4.422;2022-07-29T01:29:16;17.41;67.19
68943;DHT22;60852;52.190;4.422;2022-07-29T01:34:49;17.39;67.43
68943;DHT22;60852;52.190;4.422;2022-07-29T01:37:26;17.31;67.50
68943;DHT22;60852;52.190;4.422;2022-07-29T01:39:57;17.30;67.60
68943;DHT22;60852;52.190;4.422;2022-07-29T01:42:40;17.28;67.55
68943;DHT22;60852;52.190;4.422;2022-07-29T01:48:03;17.30;67.56
68943;DHT22;60852;52.190;4.422;2022-07-29T01:50:35;17.27;67.44
68943;DHT22;60852;52.190;4.422;2022-07-29T01:53:06;17.27;67.66
68943;DHT22;60852;52.190;4.422;2022-07-29T01:55:37;17.24;67.72
68943;DHT22;60852;52.190;4.422;2022-07-29T01:58:05;17.24;67.83
68943;DHT22;60852;52.190;4.422;2022-07-29T02:00:33;17.28;67.88
68943;DHT22;60852;52.190;4.422;2022-07-29T02:03:05;17.28;67.75
68943;DHT22;60852;52.190;4.422;2022-07-29T02:05:34;17.28;67.66
68943;DHT22;60852;52.190;4.422;2022-07-29T02:08:02;17.22;67.88
68943;DHT22;60852;52.190;4.422;2022-07-29T02:10:32;17.21;67.86
68943;DHT22;60852;52.190;4.422;2022-07-29T02:12:59;17.15;68.09
68943;DHT22;60852;52.190;4.422;2022-07-29T02:15:29;17.17;68.15
68943;DHT22;60852;52.190;4.422;2022-07-29T02:18:18;17.12;68.17
68943;DHT22;60852;52.190;4.422;2022-07-29T02:20:52;17.12;68.11
68943;DHT22;60852;52.190;4.422;2022-07-29T02:23:22;17.14;68.12
68943;DHT22;60852;52.190;4.422;2022-07-29T02:25:57;17.12;68.01
68943;DHT22;60852;52.190;4.422;2022-07-29T02:28:27;17.11;68.09
68943;DHT22;60852;52.190;4.422;2022-07-29T02:30:58;17.14;68.02
68943;DHT22;60852;52.190;4.422;2022-07-29T02:33:25;17.11;68.10
68943;DHT22;60852;52.190;4.422;2022-07-29T02:35:52;17.12;68.08
68943;DHT22;60852;52.190;4.422;2022-07-29T02:38:19;17.12;68.04
68943;DHT22;60852;52.190;4.422;2022-07-29T02:41:12;17.12;67.99
68943;DHT22;60852;52.190;4.422;2022-07-29T02:43:40;17.10;67.88
68943;DHT22;60852;52.190;4.422;2022-07-29T02:46:13;17.10;67.89
68943;DHT22;60852;52.190;4.422;2022-07-29T02:48:53;17.15;67.82
68943;DHT22;60852;52.190;4.422;2022-07-29T02:51:25;17.11;67.82
68943;DHT22;60852;52.190;4.422;2022-07-29T02:53:56;17.08;67.87
68943;DHT22;60852;52.190;4.422;2022-07-29T02:56:28;17.10;67.93
68943;DHT22;60852;52.190;4.422;2022-07-29T02:58:58;17.10;67.92
68943;DHT22;60852;52.190;4.422;2022-07-29T03:01:30;17.10;67.90
68943;DHT22;60852;52.190;4.422;2022-07-29T03:04:01;17.07;67.96
68943;DHT22;60852;52.190;4.422;2022-07-29T03:06:28;17.06;68.08
68943;DHT22;60852;52.190;4.422;2022-07-29T03:08:58;17.03;68.19
68943;DHT22;60852;52.190;4.422;2022-07-29T03:11:24;17.04;68.15
68943;DHT22;60852;52.190;4.422;2022-07-29T03:13:51;17.07;68.07
68943;DHT22;60852;52.190;4.422;2022-07-29T03:16:19;16.95;68.30
68943;DHT22;60852;52.190;4.422;2022-07-29T03:18:45;16.91;68.57
68943;DHT22;60852;52.190;4.422;2022-07-29T03:21:11;16.90;68.73
68943;DHT22;60852;52.190;4.422;2022-07-29T03:23:37;16.87;68.77
68943;DHT22;60852;52.190;4.422;2022-07-29T03:26:02;16.85;68.80
68943;DHT22;60852;52.190;4.422;2022-07-29T03:28:29;16.85;68.99
68943;DHT22;60852;52.190;4.422;2022-07-29T03:30:54;16.87;68.84
68943;DHT22;60852;52.190;4.422;2022-07-29T03:33:20;16.84;68.91
68943;DHT22;60852;52.190;4.422;2022-07-29T03:35:45;16.79;69.18
68943;DHT22;60852;52.190;4.422;2022-07-29T03:38:11;16.72;69.27
68943;DHT22;60852;52.190;4.422;2022-07-29T03:40:48;16.73;69.27
68943;DHT22;60852;52.190;4.422;2022-07-29T03:43:17;16.72;69.42
68943;DHT22;60852;52.190;4.422;2022-07-29T03:45:47;16.72;69.45
68943;DHT22;60852;52.190;4.422;2022-07-29T03:48:18;16.77;69.45
68943;DHT22;60852;52.190;4.422;2022-07-29T03:50:45;16.70;69.46
68943;DHT22;60852;52.190;4.422;2022-07-29T03:53:12;16.66;69.69
68943;DHT22;60852;52.190;4.422;2022-07-29T03:55:41;16.66;69.88
68943;DHT22;60852;52.190;4.422;2022-07-29T03:58:08;16.70;69.71
68943;DHT22;60852;52.190;4.422;2022-07-29T04:00:36;16.72;69.51
68943;DHT22;60852;52.190;4.422;2022-07-29T04:03:04;16.70;69.45
68943;DHT22;60852;52.190;4.422;2022-07-29T04:05:29;16.74;69.40
68943;DHT22;60852;52.190;4.422;2022-07-29T04:07:55;16.84;69.10
68943;DHT22;60852;52.190;4.422;2022-07-29T04:10:21;16.88;69.04
68943;DHT22;60852;52.190;4.422;2022-07-29T04:12:48;16.88;68.83
68943;DHT22;60852;52.190;4.422;2022-07-29T04:15:14;16.85;68.73
68943;DHT22;60852;52.190;4.422;2022-07-29T04:17:39;16.90;68.78
68943;DHT22;60852;52.190;4.422;2022-07-29T04:20:05;16.99;68.40
68943;DHT22;60852;52.190;4.422;2022-07-29T04:22:30;16.93;68.35
68943;DHT22;60852;52.190;4.422;2022-07-29T04:24:56;16.90;68.60
68943;DHT22;60852;52.190;4.422;2022-07-29T04:27:21;16.90;68.59
68943;DHT22;60852;52.190;4.422;2022-07-29T04:29:47;16.85;68.60
68943;DHT22;60852;52.190;4.422;2022-07-29T04:32:12;16.85;68.72
68943;DHT22;60852;52.190;4.422;2022-07-29T04:34:38;16.83;68.89
68943;DHT22;60852;52.190;4.422;2022-07-29T04:37:03;16.85;68.69
68943;DHT22;60852;52.190;4.422;2022-07-29T04:39:29;16.80;68.95
68943;DHT22;60852;52.190;4.422;2022-07-29T04:41:54;16.74;69.04
68943;DHT22;60852;52.190;4.422;2022-07-29T04:44:20;16.73;69.11
68943;DHT22;60852;52.190;4.422;2022-07-29T04:46:45;16.73;69.20
68943;DHT22;60852;52.190;4.422;2022-07-29T04:49:10;16.72;69.26
68943;DHT22;60852;52.190;4.422;2022-07-29T04:51:36;16.74;69.11
68943;DHT22;60852;52.190;4.422;2022-07-29T04:54:01;16.84;68.62
68943;DHT22;60852;52.190;4.422;2022-07-29T04:56:27;16.85;68.50
68943;DHT22;60852;52.190;4.422;2022-07-29T04:58:53;16.87;68.58
68943;DHT22;60852;52.190;4.422;2022-07-29T05:01:18;16.94;68.47
68943;DHT22;60852;52.190;4.422;2022-07-29T05:03:44;17.20;67.84
68943;DHT22;60852;52.190;4.422;2022-07-29T05:06:10;17.59;66.28
68943;DHT22;60852;52.190;4.422;2022-07-29T05:08:36;17.68;66.12
68943;DHT22;60852;52.190;4.422;2022-07-29T05:11:02;18.30;64.05
68943;DHT22;60852;52.190;4.422;2022-07-29T05:13:27;19.20;61.50
68943;DHT22;60852;52.190;4.422;2022-07-29T05:15:53;19.08;61.34
68943;DHT22;60852;52.190;4.422;2022-07-29T05:18:18;18.44;63.43
68943;DHT22;60852;52.190;4.422;2022-07-29T05:20:44;18.07;64.59
68943;DHT22;60852;52.190;4.422;2022-07-29T05:23:09;18.01;65.37
68943;DHT22;60852;52.190;4.422;2022-07-29T05:25:38;17.94;65.11
68943;DHT22;60852;52.190;4.422;2022-07-29T05:28:04;17.76;65.81
68943;DHT22;60852;52.190;4.422;2022-07-29T05:30:29;17.75;66.29
68943;DHT22;60852;52.190;4.422;2022-07-29T05:32:55;17.78;66.04
68943;DHT22;60852;52.190;4.422;2022-07-29T05:35:20;17.82;65.98
68943;DHT22;60852;52.190;4.422;2022-07-29T05:37:45;17.92;65.80
68943;DHT22;60852;52.190;4.422;2022-07-29T05:40:11;18.14;65.07
68943;DHT22;60852;52.190;4.422;2022-07-29T05:42:36;18.55;64.13
68943;DHT22;60852;52.190;4.422;2022-07-29T05:45:02;19.26;62.49
68943;DHT22;60852;52.190;4.422;2022-07-29T05:47:28;20.08;59.46
68943;DHT22;60852;52.190;4.422;2022-07-29T05:49:53;20.93;56.52
68943;DHT22;60852;52.190;4.422;2022-07-29T05:52:19;21.51;55.11
68943;DHT22;60852;52.190;4.422;2022-07-29T05:54:44;21.23;55.48
68943;DHT22;60852;52.190;4.422;2022-07-29T05:57:20;19.60;59.87
68943;DHT22;60852;52.190;4.422;2022-07-29T05:59:46;18.92;62.40
68943;DHT22;60852;52.190;4.422;2022-07-29T06:02:12;18.64;63.58
68943;DHT22;60852;52.190;4.422;2022-07-29T06:04:38;18.65;63.60
68943;DHT22;60852;52.190;4.422;2022-07-29T06:07:04;18.76;63.63
68943;DHT22;60852;52.190;4.422;2022-07-29T06:09:30;18.82;63.52
68943;DHT22;60852;52.190;4.422;2022-07-29T06:11:56;18.76;64.06
68943;DHT22;60852;52.190;4.422;2022-07-29T06:14:23;19.40;62.97
68943;DHT22;60852;52.190;4.422;2022-07-29T06:16:48;19.87;61.48
68943;DHT22;60852;52.190;4.422;2022-07-29T06:19:13;20.12;60.56
68943;DHT22;60852;52.190;4.422;2022-07-29T06:21:43;19.97;60.95
68943;DHT22;60852;52.190;4.422;2022-07-29T06:24:10;19.74;62.45
68943;DHT22;60852;52.190;4.422;2022-07-29T06:26:35;19.85;62.22
68943;DHT22;60852;52.190;4.422;2022-07-29T06:29:01;20.07;61.87
68943;DHT22;60852;52.190;4.422;2022-07-29T06:31:26;20.15;61.35
68943;DHT22;60852;52.190;4.422;2022-07-29T06:33:52;20.05;61.35
68943;DHT22;60852;52.190;4.422;2022-07-29T06:36:18;19.97;61.49
68943;DHT22;60852;52.190;4.422;2022-07-29T06:38:43;19.88;62.14
68943;DHT22;60852;52.190;4.422;2022-07-29T06:41:09;19.71;62.16
68943;DHT22;60852;52.190;4.422;2022-07-29T06:43:41;19.57;62.50
68943;DHT22;60852;52.190;4.422;2022-07-29T06:46:11;19.47;63.15
68943;DHT22;60852;52.190;4.422;2022-07-29T06:48:38;19.47;63.07
68943;DHT22;60852;52.190;4.422;2022-07-29T06:51:05;19.43;63.13
68943;DHT22;60852;52.190;4.422;2022-07-29T06:53:32;19.24;63.77
68943;DHT22;60852;52.190;4.422;2022-07-29T06:55:58;19.34;63.90
68943;DHT22;60852;52.190;4.422;2022-07-29T06:58:25;19.47;63.68
68943;DHT22;60852;52.190;4.422;2022-07-29T07:00:51;19.37;63.51
68943;DHT22;60852;52.190;4.422;2022-07-29T07:03:17;19.47;64.17
68943;DHT22;60852;52.190;4.422;2022-07-29T07:05:44;19.51;63.40
68943;DHT22;60852;52.190;4.422;2022-07-29T07:08:10;19.29;64.53
68943;DHT22;60852;52.190;4.422;2022-07-29T07:10:36;19.24;64.45
68943;DHT22;60852;52.190;4.422;2022-07-29T07:13:01;19.18;65.07
68943;DHT22;60852;52.190;4.422;2022-07-29T07:15:27;19.22;64.81
68943;DHT22;60852;52.190;4.422;2022-07-29T07:17:53;19.36;64.23
68943;DHT22;60852;52.190;4.422;2022-07-29T07:20:19;19.50;63.61
68943;DHT22;60852;52.190;4.422;2022-07-29T07:22:45;19.49;64.03
68943;DHT22;60852;52.190;4.422;2022-07-29T07:25:11;19.53;64.16
68943;DHT22;60852;52.190;4.422;2022-07-29T07:27:37;19.57;63.48
68943;DHT22;60852;52.190;4.422;2022-07-29T07:30:07;19.61;63.83
68943;DHT22;60852;52.190;4.422;2022-07-29T07:32:34;19.67;63.07
68943;DHT22;60852;52.190;4.422;2022-07-29T07:34:59;19.60;62.75
68943;DHT22;60852;52.190;4.422;2022-07-29T07:37:25;19.63;63.04
68943;DHT22;60852;52.190;4.422;2022-07-29T07:39:52;19.67;63.09
68943;DHT22;60852;52.190;4.422;2022-07-29T07:42:19;19.64;63.67
68943;DHT22;60852;52.190;4.422;2022-07-29T07:44:44;19.63;62.71
68943;DHT22;60852;52.190;4.422;2022-07-29T07:47:14;19.49;62.40
68943;DHT22;60852;52.190;4.422;2022-07-29T07:49:39;19.39;62.98
68943;DHT22;60852;52.190;4.422;2022-07-29T07:52:05;19.49;63.47
68943;DHT22;60852;52.190;4.422;2022-07-29T07:54:30;19.56;62.57
68943;DHT22;60852;52.190;4.422;2022-07-29T07:56:56;19.61;62.73
68943;DHT22;60852;52.190;4.422;2022-07-29T07:59:22;19.66;62.75
68943;DHT22;60852;52.190;4.422;2022-07-29T08:01:48;19.71;62.23
68943;DHT22;60852;52.190;4.422;2022-07-29T08:04:13;19.79;62.42
68943;DHT22;60852;52.190;4.422;2022-07-29T08:06:39;20.07;61.57
68943;DHT22;60852;52.190;4.422;2022-07-29T08:09:04;20.15;60.40
68943;DHT22;60852;52.190;4.422;2022-07-29T08:11:30;20.19;60.60
68943;DHT22;60852;52.190;4.422;2022-07-29T08:13:56;20.38;60.20
68943;DHT22;60852;52.190;4.422;2022-07-29T08:16:22;20.63;59.71
68943;DHT22;60852;52.190;4.422;2022-07-29T08:18:50;20.62;59.29
68943;DHT22;60852;52.190;4.422;2022-07-29T08:21:16;20.73;59.00
68943;DHT22;60852;52.190;4.422;2022-07-29T08:23:44;20.91;59.48
68943;DHT22;60852;52.190;4.422;2022-07-29T08:26:18;20.96;58.13
68943;DHT22;60852;52.190;4.422;2022-07-29T08:28:46;20.87;58.56
68943;DHT22;60852;52.190;4.422;2022-07-29T08:31:14;20.97;58.87
68943;DHT22;60852;52.190;4.422;2022-07-29T08:33:39;21.04;57.98
68943;DHT22;60852;52.190;4.422;2022-07-29T08:36:05;21.12;57.67
68943;DHT22;60852;52.190;4.422;2022-07-29T08:38:31;21.14;58.43
68943;DHT22;60852;52.190;4.422;2022-07-29T08:40:58;21.18;58.05
68943;DHT22;60852;52.190;4.422;2022-07-29T08:43:25;21.34;57.40
68943;DHT22;60852;52.190;4.422;2022-07-29T08:45:52;21.37;57.68
68943;DHT22;60852;52.190;4.422;2022-07-29T08:48:22;21.45;57.82
68943;DHT22;60852;52.190;4.422;2022-07-29T08:50:52;21.61;56.50
68943;DHT22;60852;52.190;4.422;2022-07-29T08:53:19;21.81;55.40
68943;DHT22;60852;52.190;4.422;2022-07-29T08:55:47;21.85;55.53
68943;DHT22;60852;52.190;4.422;2022-07-29T08:58:14;21.89;54.95
68943;DHT22;60852;52.190;4.422;2022-07-29T09:00:43;21.86;54.81
68943;DHT22;60852;52.190;4.422;2022-07-29T09:03:12;21.73;55.50
68943;DHT22;60852;52.190;4.422;2022-07-29T09:05:42;21.75;55.85
68943;DHT22;60852;52.190;4.422;2022-07-29T09:08:08;21.73;56.01
68943;DHT22;60852;52.190;4.422;2022-07-29T09:10:37;21.78;56.25
68943;DHT22;60852;52.190;4.422;2022-07-29T09:13:03;21.99;55.17
68943;DHT22;60852;52.190;4.422;2022-07-29T09:15:28;22.09;54.85
68943;DHT22;60852;52.190;4.422;2022-07-29T09:17:53;22.12;55.13
68943;DHT22;60852;52.190;4.422;2022-07-29T09:20:21;22.27;54.63
68943;DHT22;60852;52.190;4.422;2022-07-29T09:22:48;22.34;54.50
68943;DHT22;60852;52.190;4.422;2022-07-29T09:25:39;22.12;53.90
68943;DHT22;60852;52.190;4.422;2022-07-29T09:28:14;22.33;54.36
68943;DHT22;60852;52.190;4.422;2022-07-29T09:30:57;22.47;56.09
68943;DHT22;60852;52.190;4.422;2022-07-29T09:33:33;22.51;56.96
68943;DHT22;60852;52.190;4.422;2022-07-29T09:36:07;22.50;57.34
68943;DHT22;60852;52.190;4.422;2022-07-29T09:38:33;22.61;57.06
68943;DHT22;60852;52.190;4.422;2022-07-29T09:41:01;22.69;56.54
68943;DHT22;60852;52.190;4.422;2022-07-29T09:43:28;22.44;56.80
68943;DHT22;60852;52.190;4.422;2022-07-29T09:45:54;22.32;57.22
68943;DHT22;60852;52.190;4.422;2022-07-29T09:48:24;22.43;56.70
68943;DHT22;60852;52.190;4.422;2022-07-29T09:50:50;22.45;56.81
68943;DHT22;60852;52.190;4.422;2022-07-29T09:53:37;22.44;57.09
68943;DHT22;60852;52.190;4.422;2022-07-29T09:56:04;22.48;56.23
68943;DHT22;60852;52.190;4.422;2022-07-29T09:58:30;22.41;56.35
68943;DHT22;60852;52.190;4.422;2022-07-29T10:00:59;22.45;56.28
68943;DHT22;60852;52.190;4.422;2022-07-29T10:03:24;22.60;56.33
68943;DHT22;60852;52.190;4.422;2022-07-29T10:06:11;22.67;56.87
68943;DHT22;60852;52.190;4.422;2022-07-29T10:08:38;23.22;54.66
68943;DHT22;60852;52.190;4.422;2022-07-29T10:11:16;23.94;53.10
68943;DHT22;60852;52.190;4.422;2022-07-29T10:13:43;24.56;51.20
68943;DHT22;60852;52.190;4.422;2022-07-29T10:16:10;24.90;50.46
68943;DHT22;60852;52.190;4.422;2022-07-29T10:18:38;25.27;49.26
68943;DHT22;60852;52.190;4.422;2022-07-29T10:21:05;25.49;48.65
68943;DHT22;60852;52.190;4.422;2022-07-29T10:23:30;25.57;48.00
68943;DHT22;60852;52.190;4.422;2022-07-29T10:25:57;25.72;48.52
68943;DHT22;60852;52.190;4.422;2022-07-29T10:28:23;25.57;47.70
68943;DHT22;60852;52.190;4.422;2022-07-29T10:31:04;25.71;47.70
68943;DHT22;60852;52.190;4.422;2022-07-29T10:39:43;26.17;46.42
68943;DHT22;60852;52.190;4.422;2022-07-29T10:42:19;26.02;46.51
68943;DHT22;60852;52.190;4.422;2022-07-29T10:44:46;25.71;47.16
68943;DHT22;60852;52.190;4.422;2022-07-29T10:47:26;25.21;48.36
68943;DHT22;60852;52.190;4.422;2022-07-29T10:52:22;24.97;49.17
68943;DHT22;60852;52.190;4.422;2022-07-29T10:54:49;25.14;48.66
68943;DHT22;60852;52.190;4.422;2022-07-29T10:57:21;24.93;49.26
68943;DHT22;60852;52.190;4.422;2022-07-29T10:59:49;24.79;49.55
68943;DHT22;60852;52.190;4.422;2022-07-29T11:07:25;23.66;53.14
68943;DHT22;60852;52.190;4.422;2022-07-29T11:15:04;23.73;53.14
68943;DHT22;60852;52.190;4.422;2022-07-29T11:20:39;23.16;53.99
68943;DHT22;60852;52.190;4.422;2022-07-29T11:23:31;23.11;53.70
68943;DHT22;60852;52.190;4.422;2022-07-29T11:31:10;23.49;53.49
68943;DHT22;60852;52.190;4.422;2022-07-29T11:33:36;23.49;53.36
68943;DHT22;60852;52.190;4.422;2022-07-29T11:36:13;23.39;53.13
68943;DHT22;60852;52.190;4.422;2022-07-29T11:38:40;23.45;53.48
68943;DHT22;60852;52.190;4.422;2022-07-29T11:41:24;23.38;53.98
68943;DHT22;60852;52.190;4.422;2022-07-29T11:43:53;23.42;53.40
68943;DHT22;60852;52.190;4.422;2022-07-29T11:46:42;23.53;53.25
68943;DHT22;60852;52.190;4.422;2022-07-29T11:49:09;23.52;53.38
68943;DHT22;60852;52.190;4.422;2022-07-29T11:51:37;23.36;54.12
68943;DHT22;60852;52.190;4.422;2022-07-29T11:54:04;23.33;53.99
68943;DHT22;60852;52.190;4.422;2022-07-29T11:56:31;23.63;53.97
68943;DHT22;60852;52.190;4.422;2022-07-29T11:59:07;23.66;53.14
68943;DHT22;60852;52.190;4.422;2022-07-29T12:01:35;23.46;53.57
68943;DHT22;60852;52.190;4.422;2022-07-29T12:04:05;23.57;53.84
68943;DHT22;60852;52.190;4.422;2022-07-29T12:06:34;23.64;53.50
68943;DHT22;60852;52.190;4.422;2022-07-29T12:09:00;23.66;52.74
68943;DHT22;60852;52.190;4.422;2022-07-29T12:11:31;23.38;52.82
68943;DHT22;60852;52.190;4.422;2022-07-29T12:13:56;23.33;54.26
68943;DHT22;60852;52.190;4.422;2022-07-29T12:16:22;23.54;52.96
68943;DHT22;60852;52.190;4.422;2022-07-29T12:19:00;23.53;52.99
68943;DHT22;60852;52.190;4.422;2022-07-29T12:21:27;23.43;53.73
68943;DHT22;60852;52.190;4.422;2022-07-29T12:23:53;23.47;53.72
68943;DHT22;60852;52.190;4.422;2022-07-29T12:26:22;23.45;53.44
68943;DHT22;60852;52.190;4.422;2022-07-29T12:28:48;23.23;53.91
68943;DHT22;60852;52.190;4.422;2022-07-29T12:31:15;22.99;54.39
68943;DHT22;60852;52.190;4.422;2022-07-29T12:33:41;23.08;54.88
68943;DHT22;60852;52.190;4.422;2022-07-29T12:36:07;23.18;54.23
68943;DHT22;60852;52.190;4.422;2022-07-29T12:38:37;22.99;54.70
68943;DHT22;60852;52.190;4.422;2022-07-29T12:41:05;23.08;55.41
68943;DHT22;60852;52.190;4.422;2022-07-29T12:43:30;23.40;54.84
68943;DHT22;60852;52.190;4.422;2022-07-29T12:45:57;23.66;53.46
68943;DHT22;60852;52.190;4.422;2022-07-29T12:48:33;23.61;53.38
68943;DHT22;60852;52.190;4.422;2022-07-29T12:51:02;23.59;53.19
68943;DHT22;60852;52.190;4.422;2022-07-29T12:53:28;23.45;53.29
68943;DHT22;60852;52.190;4.422;2022-07-29T12:55:56;23.30;54.66
68943;DHT22;60852;52.190;4.422;2022-07-29T12:58:36;23.40;54.64
68943;DHT22;60852;52.190;4.422;2022-07-29T13:01:12;23.42;54.37
68943;DHT22;60852;52.190;4.422;2022-07-29T13:03:45;23.42;54.71
68943;DHT22;60852;52.190;4.422;2022-07-29T13:06:43;23.70;54.51
68943;DHT22;60852;52.190;4.422;2022-07-29T13:09:17;23.57;53.84
68943;DHT22;60852;52.190;4.422;2022-07-29T13:11:46;23.54;54.06
68943;DHT22;60852;52.190;4.422;2022-07-29T13:14:14;23.46;53.78
68943;DHT22;60852;52.190;4.422;2022-07-29T13:19:39;23.75;53.68
68943;DHT22;60852;52.190;4.422;2022-07-29T13:22:09;23.74;52.91
68943;DHT22;60852;52.190;4.422;2022-07-29T13:24:52;23.67;53.35
68943;DHT22;60852;52.190;4.422;2022-07-29T13:27:19;23.24;54.82
68943;DHT22;60852;52.190;4.422;2022-07-29T13:29:45;23.18;55.66
68943;DHT22;60852;52.190;4.422;2022-07-29T13:32:12;23.40;56.03
68943;DHT22;60852;52.190;4.422;2022-07-29T13:34:38;23.61;55.16
68943;DHT22;60852;52.190;4.422;2022-07-29T13:37:04;23.63;53.68
68943;DHT22;60852;52.190;4.422;2022-07-29T13:39:30;23.43;55.59
68943;DHT22;60852;52.190;4.422;2022-07-29T13:41:55;23.52;54.31
68943;DHT22;60852;52.190;4.422;2022-07-29T13:44:21;23.64;55.16
68943;DHT22;60852;52.190;4.422;2022-07-29T13:46:46;23.75;55.82
68943;DHT22;60852;52.190;4.422;2022-07-29T13:49:12;23.80;53.28
68943;DHT22;60852;52.190;4.422;2022-07-29T13:51:38;23.84;55.77
68943;DHT22;60852;52.190;4.422;2022-07-29T13:54:04;23.80;55.80
68943;DHT22;60852;52.190;4.422;2022-07-29T13:56:29;23.67;54.54
68943;DHT22;60852;52.190;4.422;2022-07-29T13:58:55;23.67;56.86
68943;DHT22;60852;52.190;4.422;2022-07-29T14:01:20;23.60;54.92
68943;DHT22;60852;52.190;4.422;2022-07-29T14:03:46;23.43;55.97
68943;DHT22;60852;52.190;4.422;2022-07-29T14:06:11;23.47;56.93
68943;DHT22;60852;52.190;4.422;2022-07-29T14:08:37;23.46;56.07
68943;DHT22;60852;52.190;4.422;2022-07-29T14:11:02;23.49;56.36
68943;DHT22;60852;52.190;4.422;2022-07-29T14:13:28;23.59;57.18
68943;DHT22;60852;52.190;4.422;2022-07-29T14:15:53;23.60;56.54
68943;DHT22;60852;52.190;4.422;2022-07-29T14:18:19;23.52;57.28
68943;DHT22;60852;52.190;4.422;2022-07-29T14:20:44;23.42;55.62
68943;DHT22;60852;52.190;4.422;2022-07-29T14:23:10;23.46;56.59
68943;DHT22;60852;52.190;4.422;2022-07-29T14:25:35;23.46;57.03
68943;DHT22;60852;52.190;4.422;2022-07-29T14:28:01;23.52;57.03
68943;DHT22;60852;52.190;4.422;2022-07-29T14:30:26;23.57;58.40
68943;DHT22;60852;52.190;4.422;2022-07-29T14:32:52;23.64;53.82
68943;DHT22;60852;52.190;4.422;2022-07-29T14:35:17;23.60;55.79
68943;DHT22;60852;52.190;4.422;2022-07-29T14:37:43;23.49;58.42
68943;DHT22;60852;52.190;4.422;2022-07-29T14:40:09;23.52;55.40
68943;DHT22;60852;52.190;4.422;2022-07-29T14:42:36;23.47;56.54
68943;DHT22;60852;52.190;4.422;2022-07-29T14:45:03;23.43;58.17
68943;DHT22;60852;52.190;4.422;2022-07-29T14:47:29;23.29;60.25
68943;DHT22;60852;52.190;4.422;2022-07-29T14:49:55;23.40;60.16
68943;DHT22;60852;52.190;4.422;2022-07-29T14:52:20;23.39;59.17
68943;DHT22;60852;52.190;4.422;2022-07-29T14:54:46;23.39;58.23
68943;DHT22;60852;52.190;4.422;2022-07-29T14:57:11;23.47;56.82
68943;DHT22;60852;52.190;4.422;2022-07-29T14:59:36;23.38;57.92
68943;DHT22;60852;52.190;4.422;2022-07-29T15:02:02;23.23;57.78
68943;DHT22;60852;52.190;4.422;2022-07-29T15:04:30;23.13;58.14
68943;DHT22;60852;52.190;4.422;2022-07-29T15:06:55;23.03;58.00
68943;DHT22;60852;52.190;4.422;2022-07-29T15:09:21;22.95;58.81
68943;DHT22;60852;52.190;4.422;2022-07-29T15:11:46;23.03;58.73
68943;DHT22;60852;52.190;4.422;2022-07-29T15:14:12;23.11;59.84
68943;DHT22;60852;52.190;4.422;2022-07-29T15:16:38;23.06;59.10
68943;DHT22;60852;52.190;4.422;2022-07-29T15:19:04;22.98;61.11
68943;DHT22;60852;52.190;4.422;2022-07-29T15:21:30;23.01;59.29
68943;DHT22;60852;52.190;4.422;2022-07-29T15:23:55;23.11;60.56
68943;DHT22;60852;52.190;4.422;2022-07-29T15:26:21;23.05;59.87
68943;DHT22;60852;52.190;4.422;2022-07-29T15:28:46;22.87;60.56
68943;DHT22;60852;52.190;4.422;2022-07-29T15:31:14;22.95;61.74
68943;DHT22;60852;52.190;4.422;2022-07-29T15:33:40;23.01;61.42
68943;DHT22;60852;52.190;4.422;2022-07-29T15:36:06;23.05;60.86
68943;DHT22;60852;52.190;4.422;2022-07-29T15:38:31;22.99;61.35
68943;DHT22;60852;52.190;4.422;2022-07-29T15:40:57;22.92;61.63
68943;DHT22;60852;52.190;4.422;2022-07-29T15:43:23;22.84;61.23
68943;DHT22;60852;52.190;4.422;2022-07-29T15:45:48;22.87;60.34
68943;DHT22;60852;52.190;4.422;2022-07-29T15:48:37;22.68;61.20
68943;DHT22;60852;52.190;4.422;2022-07-29T15:51:03;22.62;61.72
68943;DHT22;60852;52.190;4.422;2022-07-29T15:53:28;22.47;60.89
68943;DHT22;60852;52.190;4.422;2022-07-29T15:55:53;22.50;62.97
68943;DHT22;60852;52.190;4.422;2022-07-29T15:58:19;22.61;61.79
68943;DHT22;60852;52.190;4.422;2022-07-29T16:00:44;22.58;62.12
68943;DHT22;60852;52.190;4.422;2022-07-29T16:03:10;22.53;63.72
68943;DHT22;60852;52.190;4.422;2022-07-29T16:05:35;22.43;64.34
68943;DHT22;60852;52.190;4.422;2022-07-29T16:08:01;22.41;65.71
68943;DHT22;60852;52.190;4.422;2022-07-29T16:10:28;22.55;65.12
68943;DHT22;60852;52.190;4.422;2022-07-29T16:12:54;22.53;65.65
68943;DHT22;60852;52.190;4.422;2022-07-29T16:15:19;22.43;65.79